sensor_id;sensor_type;location;lat;lon;timestamp;temperature;humidity
6556;DHT22;3311;48.32423000;14.29074500;2023-04-03T00:00:43;11.90;51.30
6556;DHT22;3311;48.32423000;14.29074500;2023-04-03T00:03:10;11.80;51.70
6556;DHT22;3311;48.32423000;14.29074500;2023-04-03T00:05:37;11.80;52.00
6556;DHT22;3311;48.32423000;14.29074500;2023-04-03T00:08:06;11.80;52.30
6556;DHT22;3311;48.32423000;14.29074500;2023-04-03T00:10:35;11.80;51.80
6556;DHT22;3311;48.32423000;14.29074500;2023-04-03T00:13:02;11.80;51.80
6556;DHT22;3311;48.32423000;14.29074500;2023-04-03T00:15:30;11.90;52.30
6556;DHT22;3311;48.32423000;14.29074500;2023-04-03T00:17:57;12.00;51.80
6556;DHT22;3311;48.32423000;14.29074500;2023-04-03T00:20:25;11.90;51.80
6556;DHT22;3311;48.32423000;14.29074500;2023-04-03T00:22:54;11.80;51.70
6556;DHT22;3311;48.32423000;14.29074500;2023-04-03T00:25:23;11.90;52.30
6556;DHT22;3311;48.32423000;14.29074500;2023-04-03T00:27:50;11.90;51.30
6556;DHT22;3311;48.32423000;14.29074500;2023-04-03T00:30:20;12.00;51.70
6556;DHT22;3311;48.32423000;14.29074500;2023-04-03T00:32:48;11.90;51.20
6556;DHT22;3311;48.32423000;14.29074500;2023-04-03T00:35:16;11.80;51.70
6556;DHT22;3311;48.32423000;14.29074500;2023-04-03T00:37:44;11.80;51.90
6556;DHT22;3311;48.32423000;14.29074500;2023-04-03T00:40:13;11.80;51.80
6556;DHT22;3311;48.32423000;14.29074500;2023-04-03T00:42:44;11.80;51.20
6556;DHT22;3311;48.32423000;14.29074500;2023-04-03T00:45:35;11.80;51.10
6556;DHT22;3311;48.32423000;14.29074500;2023-04-03T00:48:05;11.80;51.10
6556;DHT22;3311;48.32423000;14.29074500;2023-04-03T00:50:36;11.80;50.50
6556;DHT22;3311;48.32423000;14.29074500;2023-04-03T00:53:06;11.80;50.50
6556;DHT22;3311;48.32423000;14.29074500;2023-04-03T00:55:36;11.80;50.70
6556;DHT22;3311;48.32423000;14.29074500;2023-04-03T00:58:06;11.70;50.50
6556;DHT22;3311;48.32423000;14.29074500;2023-04-03T01:00:36;11.80;51.20
6556;DHT22;3311;48.32423000;14.29074500;2023-04-03T01:03:04;11.90;51.10
6556;DHT22;3311;48.32423000;14.29074500;2023-04-03T01:05:32;12.00;51.00
6556;DHT22;3311;48.32423000;14.29074500;2023-04-03T01:08:00;12.00;50.70
6556;DHT22;3311;48.32423000;14.29074500;2023-04-03T01:10:27;11.90;50.80
6556;DHT22;3311;48.32423000;14.29074500;2023-04-03T01:12:55;12.10;51.00
6556;DHT22;3311;48.32423000;14.29074500;2023-04-03T01:15:26;11.90;50.50
6556;DHT22;3311;48.32423000;14.29074500;2023-04-03T01:17:57;11.90;51.20
6556;DHT22;3311;48.32423000;14.29074500;2023-04-03T01:23:55;11.80;51.10
6556;DHT22;3311;48.32423000;14.29074500;2023-04-03T01:26:25;12.00;51.70
6556;DHT22;3311;48.32423000;14.29074500;2023-04-03T01:28:54;11.80;50.90
6556;DHT22;3311;48.32423000;14.29074500;2023-04-03T01:31:26;11.80;51.90
6556;DHT22;3311;48.32423000;14.29074500;2023-04-03T01:33:55;11.70;51.30
6556;DHT22;3311;48.32423000;14.29074500;2023-04-03T01:36:24;11.80;51.60
6556;DHT22;3311;48.32423000;14.29074500;2023-04-03T01:38:53;11.80;51.70
6556;DHT22;3311;48.32423000;14.29074500;2023-04-03T01:41:21;11.90;52.00
6556;DHT22;3311;48.32423000;14.29074500;2023-04-03T01:43:49;11.80;51.60
6556;DHT22;3311;48.32423000;14.29074500;2023-04-03T01:46:17;11.90;51.60
6556;DHT22;3311;48.32423000;14.29074500;2023-04-03T01:48:46;11.80;51.70
6556;DHT22;3311;48.32423000;14.29074500;2023-04-03T01:51:14;11.80;51.70
6556;DHT22;3311;48.32423000;14.29074500;2023-04-03T01:53:42;11.70;51.40
6556;DHT22;3311;48.32423000;14.29074500;2023-04-03T01:56:09;11.90;51.90
6556;DHT22;3311;48.32423000;14.29074500;2023-04-03T01:58:37;11.90;51.00
6556;DHT22;3311;48.32423000;14.29074500;2023-04-03T02:01:05;11.90;51.30
6556;DHT22;3311;48.32423000;14.29074500;2023-04-03T02:03:32;11.80;51.40
6556;DHT22;3311;48.32423000;14.29074500;2023-04-03T02:06:00;11.80;51.60
6556;DHT22;3311;48.32423000;14.29074500;2023-04-03T02:08:29;11.70;51.30
6556;DHT22;3311;48.32423000;14.29074500;2023-04-03T02:10:56;11.70;51.20
6556;DHT22;3311;48.32423000;14.29074500;2023-04-03T02:13:23;12.00;51.70
6556;DHT22;3311;48.32423000;14.29074500;2023-04-03T02:15:51;12.00;51.10
6556;DHT22;3311;48.32423000;14.29074500;2023-04-03T02:18:18;11.80;51.10
6556;DHT22;3311;48.32423000;14.29074500;2023-04-03T02:20:47;11.80;51.50
6556;DHT22;3311;48.32423000;14.29074500;2023-04-03T02:23:14;11.90;51.70
6556;DHT22;3311;48.32423000;14.29074500;2023-04-03T02:25:43;11.90;51.00
6556;DHT22;3311;48.32423000;14.29074500;2023-04-03T02:28:10;11.90;51.20
6556;DHT22;3311;48.32423000;14.29074500;2023-04-03T02:30:37;12.00;51.10
6556;DHT22;3311;48.32423000;14.29074500;2023-04-03T02:33:04;11.90;50.80
6556;DHT22;3311;48.32423000;14.29074500;2023-04-03T02:35:32;11.80;51.10
6556;DHT22;3311;48.32423000;14.29074500;2023-04-03T02:37:59;11.80;51.30
6556;DHT22;3311;48.32423000;14.29074500;2023-04-03T02:40:26;11.70;51.30
6556;DHT22;3311;48.32423000;14.29074500;2023-04-03T02:42:55;11.80;51.40
6556;DHT22;3311;48.32423000;14.29074500;2023-04-03T02:45:22;11.80;51.40
6556;DHT22;3311;48.32423000;14.29074500;2023-04-03T02:47:49;11.90;51.50
6556;DHT22;3311;48.32423000;14.29074500;2023-04-03T02:50:17;11.90;51.20
6556;DHT22;3311;48.32423000;14.29074500;2023-04-03T02:52:44;11.90;51.10
6556;DHT22;3311;48.32423000;14.29074500;2023-04-03T02:55:14;12.00;51.10
6556;DHT22;3311;48.32423000;14.29074500;2023-04-03T02:57:42;12.10;50.90
6556;DHT22;3311;48.32423000;14.29074500;2023-04-03T03:00:12;12.00;50.50
6556;DHT22;3311;48.32423000;14.29074500;2023-04-03T03:02:40;12.00;50.80
6556;DHT22;3311;48.32423000;14.29074500;2023-04-03T03:05:08;11.90;50.60
6556;DHT22;3311;48.32423000;14.29074500;2023-04-03T03:07:35;12.00;50.90
6556;DHT22;3311;48.32423000;14.29074500;2023-04-03T03:10:03;11.90;50.30
6556;DHT22;3311;48.32423000;14.29074500;2023-04-03T03:12:30;11.80;50.40
6556;DHT22;3311;48.32423000;14.29074500;2023-04-03T03:14:57;11.90;50.60
6556;DHT22;3311;48.32423000;14.29074500;2023-04-03T03:17:26;11.90;49.90
6556;DHT22;3311;48.32423000;14.29074500;2023-04-03T03:19:54;11.90;50.30
6556;DHT22;3311;48.32423000;14.29074500;2023-04-03T03:22:21;11.90;50.10
6556;DHT22;3311;48.32423000;14.29074500;2023-04-03T03:24:48;12.00;50.60
6556;DHT22;3311;48.32423000;14.29074500;2023-04-03T03:27:15;12.00;50.00
6556;DHT22;3311;48.32423000;14.29074500;2023-04-03T03:29:43;12.00;50.00
6556;DHT22;3311;48.32423000;14.29074500;2023-04-03T03:32:10;11.90;50.00
6556;DHT22;3311;48.32423000;14.29074500;2023-04-03T03:34:39;11.80;50.40
6556;DHT22;3311;48.32423000;14.29074500;2023-04-03T03:37:07;11.80;50.30
6556;DHT22;3311;48.32423000;14.29074500;2023-04-03T03:39:34;11.80;50.60
6556;DHT22;3311;48.32423000;14.29074500;2023-04-03T03:42:01;11.80;50.70
6556;DHT22;3311;48.32423000;14.29074500;2023-04-03T03:44:29;11.90;50.50
6556;DHT22;3311;48.32423000;14.29074500;2023-04-03T03:46:56;11.80;50.70
6556;DHT22;3311;48.32423000;14.29074500;2023-04-03T03:49:23;11.70;50.60
6556;DHT22;3311;48.32423000;14.29074500;2023-04-03T03:51:52;11.70;51.00
6556;DHT22;3311;48.32423000;14.29074500;2023-04-03T03:54:19;11.60;50.90
6556;DHT22;3311;48.32423000;14.29074500;2023-04-03T03:56:47;11.70;51.10
6556;DHT22;3311;48.32423000;14.29074500;2023-04-03T03:59:14;11.60;50.80
6556;DHT22;3311;48.32423000;14.29074500;2023-04-03T04:01:42;11.60;51.20
6556;DHT22;3311;48.32423000;14.29074500;2023-04-03T04:04:09;11.70;51.40
6556;DHT22;3311;48.32423000;14.29074500;2023-04-03T04:06:36;11.70;51.20
6556;DHT22;3311;48.32423000;14.29074500;2023-04-03T04:09:05;11.60;51.40
6556;DHT22;3311;48.32423000;14.29074500;2023-04-03T04:11:32;11.60;51.20
6556;DHT22;3311;48.32423000;14.29074500;2023-04-03T04:14:00;11.60;51.00
6556;DHT22;3311;48.32423000;14.29074500;2023-04-03T04:16:27;11.60;51.20
6556;DHT22;3311;48.32423000;14.29074500;2023-04-03T04:18:54;11.50;51.10
6556;DHT22;3311;48.32423000;14.29074500;2023-04-03T04:21:22;11.50;51.40
6556;DHT22;3311;48.32423000;14.29074500;2023-04-03T04:23:49;11.50;51.40
6556;DHT22;3311;48.32423000;14.29074500;2023-04-03T04:26:18;11.50;51.40
6556;DHT22;3311;48.32423000;14.29074500;2023-04-03T04:28:45;11.60;51.60
6556;DHT22;3311;48.32423000;14.29074500;2023-04-03T04:31:13;11.50;50.70
6556;DHT22;3311;48.32423000;14.29074500;2023-04-03T04:33:40;11.40;51.00
6556;DHT22;3311;48.32423000;14.29074500;2023-04-03T04:36:07;11.50;51.40
6556;DHT22;3311;48.32423000;14.29074500;2023-04-03T04:38:34;11.40;51.30
6556;DHT22;3311;48.32423000;14.29074500;2023-04-03T04:41:02;11.40;51.60
6556;DHT22;3311;48.32423000;14.29074500;2023-04-03T04:43:30;11.40;51.60
6556;DHT22;3311;48.32423000;14.29074500;2023-04-03T04:46:02;11.40;51.40
6556;DHT22;3311;48.32423000;14.29074500;2023-04-03T04:48:29;11.50;51.60
6556;DHT22;3311;48.32423000;14.29074500;2023-04-03T04:50:56;11.50;51.60
6556;DHT22;3311;48.32423000;14.29074500;2023-04-03T04:53:23;11.40;51.60
6556;DHT22;3311;48.32423000;14.29074500;2023-04-03T04:55:51;11.40;51.80
6556;DHT22;3311;48.32423000;14.29074500;2023-04-03T04:58:18;11.60;51.60
6556;DHT22;3311;48.32423000;14.29074500;2023-04-03T05:00:47;11.40;51.30
6556;DHT22;3311;48.32423000;14.29074500;2023-04-03T05:03:14;11.50;51.50
6556;DHT22;3311;48.32423000;14.29074500;2023-04-03T05:05:42;11.30;51.50
6556;DHT22;3311;48.32423000;14.29074500;2023-04-03T05:08:09;11.40;51.80
6556;DHT22;3311;48.32423000;14.29074500;2023-04-03T05:10:36;11.50;51.90
6556;DHT22;3311;48.32423000;14.29074500;2023-04-03T05:13:03;11.60;51.00
6556;DHT22;3311;48.32423000;14.29074500;2023-04-03T05:15:30;11.50;51.20
6556;DHT22;3311;48.32423000;14.29074500;2023-04-03T05:17:59;11.50;51.30
6556;DHT22;3311;48.32423000;14.29074500;2023-04-03T05:20:26;11.50;51.00
6556;DHT22;3311;48.32423000;14.29074500;2023-04-03T05:22:54;11.50;51.00
6556;DHT22;3311;48.32423000;14.29074500;2023-04-03T05:25:21;11.50;51.10
6556;DHT22;3311;48.32423000;14.29074500;2023-04-03T05:27:49;11.40;51.00
6556;DHT22;3311;48.32423000;14.29074500;2023-04-03T05:30:16;11.50;51.10
6556;DHT22;3311;48.32423000;14.29074500;2023-04-03T05:32:43;11.50;50.90
6556;DHT22;3311;48.32423000;14.29074500;2023-04-03T05:35:12;11.50;51.30
6556;DHT22;3311;48.32423000;14.29074500;2023-04-03T05:37:40;11.40;51.20
6556;DHT22;3311;48.32423000;14.29074500;2023-04-03T05:40:09;11.40;51.10
6556;DHT22;3311;48.32423000;14.29074500;2023-04-03T05:42:36;11.30;51.00
6556;DHT22;3311;48.32423000;14.29074500;2023-04-03T05:45:05;11.30;51.40
6556;DHT22;3311;48.32423000;14.29074500;2023-04-03T05:47:32;11.30;51.50
6556;DHT22;3311;48.32423000;14.29074500;2023-04-03T05:49:59;11.50;51.60
6556;DHT22;3311;48.32423000;14.29074500;2023-04-03T05:52:29;11.70;51.70
6556;DHT22;3311;48.32423000;14.29074500;2023-04-03T05:54:58;11.90;52.20
6556;DHT22;3311;48.32423000;14.29074500;2023-04-03T05:57:25;11.90;51.80
6556;DHT22;3311;48.32423000;14.29074500;2023-04-03T05:59:53;11.90;51.10
6556;DHT22;3311;48.32423000;14.29074500;2023-04-03T06:02:22;11.80;52.00
6556;DHT22;3311;48.32423000;14.29074500;2023-04-03T06:04:49;11.60;52.10
6556;DHT22;3311;48.32423000;14.29074500;2023-04-03T06:07:18;11.80;53.20
6556;DHT22;3311;48.32423000;14.29074500;2023-04-03T06:09:50;11.80;52.90
6556;DHT22;3311;48.32423000;14.29074500;2023-04-03T06:12:19;11.90;52.40
6556;DHT22;3311;48.32423000;14.29074500;2023-04-03T06:14:46;11.80;52.50
6556;DHT22;3311;48.32423000;14.29074500;2023-04-03T06:17:13;11.90;52.30
6556;DHT22;3311;48.32423000;14.29074500;2023-04-03T06:19:41;12.00;52.50
6556;DHT22;3311;48.32423000;14.29074500;2023-04-03T06:22:08;12.00;52.80
6556;DHT22;3311;48.32423000;14.29074500;2023-04-03T06:24:37;12.00;53.20
6556;DHT22;3311;48.32423000;14.29074500;2023-04-03T06:27:06;12.00;52.30
6556;DHT22;3311;48.32423000;14.29074500;2023-04-03T06:29:34;11.90;52.60
6556;DHT22;3311;48.32423000;14.29074500;2023-04-03T06:32:03;11.60;52.80
6556;DHT22;3311;48.32423000;14.29074500;2023-04-03T06:34:30;11.70;53.40
6556;DHT22;3311;48.32423000;14.29074500;2023-04-03T06:36:58;11.60;53.80
6556;DHT22;3311;48.32423000;14.29074500;2023-04-03T06:39:25;11.70;54.30
6556;DHT22;3311;48.32423000;14.29074500;2023-04-03T06:41:53;11.90;54.00
6556;DHT22;3311;48.32423000;14.29074500;2023-04-03T06:44:21;12.00;54.20
6556;DHT22;3311;48.32423000;14.29074500;2023-04-03T06:46:51;12.00;53.80
6556;DHT22;3311;48.32423000;14.29074500;2023-04-03T06:49:20;12.20;54.20
6556;DHT22;3311;48.32423000;14.29074500;2023-04-03T06:51:48;12.20;53.70
6556;DHT22;3311;48.32423000;14.29074500;2023-04-03T06:54:16;12.10;53.70
6556;DHT22;3311;48.32423000;14.29074500;2023-04-03T06:56:44;12.20;53.70
6556;DHT22;3311;48.32423000;14.29074500;2023-04-03T06:59:12;11.90;53.40
6556;DHT22;3311;48.32423000;14.29074500;2023-04-03T07:01:41;11.70;54.30
6556;DHT22;3311;48.32423000;14.29074500;2023-04-03T07:04:09;11.70;54.70
6556;DHT22;3311;48.32423000;14.29074500;2023-04-03T07:06:36;11.80;54.80
6556;DHT22;3311;48.32423000;14.29074500;2023-04-03T07:09:03;11.60;55.10
6556;DHT22;3311;48.32423000;14.29074500;2023-04-03T07:11:31;11.50;55.10
6556;DHT22;3311;48.32423000;14.29074500;2023-04-03T07:13:58;11.50;56.10
6556;DHT22;3311;48.32423000;14.29074500;2023-04-03T07:16:25;11.60;56.40
6556;DHT22;3311;48.32423000;14.29074500;2023-04-03T07:18:54;11.70;56.70
6556;DHT22;3311;48.32423000;14.29074500;2023-04-03T07:21:21;11.40;56.90
6556;DHT22;3311;48.32423000;14.29074500;2023-04-03T07:23:48;11.40;57.50
6556;DHT22;3311;48.32423000;14.29074500;2023-04-03T07:26:17;11.30;57.90
6556;DHT22;3311;48.32423000;14.29074500;2023-04-03T07:28:46;11.30;57.90
6556;DHT22;3311;48.32423000;14.29074500;2023-04-03T07:31:15;11.20;58.30
6556;DHT22;3311;48.32423000;14.29074500;2023-04-03T07:33:44;11.10;58.20
6556;DHT22;3311;48.32423000;14.29074500;2023-04-03T07:36:17;11.10;58.20
6556;DHT22;3311;48.32423000;14.29074500;2023-04-03T07:38:45;11.00;57.60
6556;DHT22;3311;48.32423000;14.29074500;2023-04-03T07:41:13;11.00;57.90
6556;DHT22;3311;48.32423000;14.29074500;2023-04-03T07:43:43;10.90;57.70
6556;DHT22;3311;48.32423000;14.29074500;2023-04-03T07:46:10;11.00;58.00
6556;DHT22;3311;48.32423000;14.29074500;2023-04-03T07:48:38;11.10;59.30
6556;DHT22;3311;48.32423000;14.29074500;2023-04-03T07:51:06;11.00;58.20
6556;DHT22;3311;48.32423000;14.29074500;2023-04-03T07:53:34;11.10;57.50
6556;DHT22;3311;48.32423000;14.29074500;2023-04-03T07:56:02;11.10;58.10
6556;DHT22;3311;48.32423000;14.29074500;2023-04-03T07:58:29;11.10;57.50
6556;DHT22;3311;48.32423000;14.29074500;2023-04-03T08:00:57;11.10;57.40
6556;DHT22;3311;48.32423000;14.29074500;2023-04-03T08:03:24;11.10;56.40
6556;DHT22;3311;48.32423000;14.29074500;2023-04-03T08:05:51;11.10;56.60
6556;DHT22;3311;48.32423000;14.29074500;2023-04-03T08:08:20;11.00;56.40
6556;DHT22;3311;48.32423000;14.29074500;2023-04-03T08:10:50;11.00;56.00
6556;DHT22;3311;48.32423000;14.29074500;2023-04-03T08:13:18;11.00;56.60
6556;DHT22;3311;48.32423000;14.29074500;2023-04-03T08:15:46;11.00;56.50
6556;DHT22;3311;48.32423000;14.29074500;2023-04-03T08:18:13;11.00;56.00
6556;DHT22;3311;48.32423000;14.29074500;2023-04-03T08:20:43;11.10;56.00
6556;DHT22;3311;48.32423000;14.29074500;2023-04-03T08:23:13;11.20;55.60
6556;DHT22;3311;48.32423000;14.29074500;2023-04-03T08:25:41;11.40;56.00
6556;DHT22;3311;48.32423000;14.29074500;2023-04-03T08:28:11;11.60;55.50
6556;DHT22;3311;48.32423000;14.29074500;2023-04-03T08:30:39;11.70;55.00
6556;DHT22;3311;48.32423000;14.29074500;2023-04-03T08:33:07;11.90;54.30
6556;DHT22;3311;48.32423000;14.29074500;2023-04-03T08:35:38;12.00;53.40
6556;DHT22;3311;48.32423000;14.29074500;2023-04-03T08:38:06;12.10;52.60
6556;DHT22;3311;48.32423000;14.29074500;2023-04-03T08:40:33;12.20;51.60
6556;DHT22;3311;48.32423000;14.29074500;2023-04-03T08:43:19;12.20;52.40
6556;DHT22;3311;48.32423000;14.29074500;2023-04-03T08:45:53;12.20;50.90
6556;DHT22;3311;48.32423000;14.29074500;2023-04-03T08:48:24;12.20;50.00
6556;DHT22;3311;48.32423000;14.29074500;2023-04-03T08:50:58;12.20;51.00
6556;DHT22;3311;48.32423000;14.29074500;2023-04-03T08:53:28;12.40;51.00
6556;DHT22;3311;48.32423000;14.29074500;2023-04-03T08:55:58;12.40;50.20
6556;DHT22;3311;48.32423000;14.29074500;2023-04-03T08:58:33;12.40;50.00
6556;DHT22;3311;48.32423000;14.29074500;2023-04-03T09:01:17;12.30;49.20
6556;DHT22;3311;48.32423000;14.29074500;2023-04-03T09:03:46;12.40;48.70
6556;DHT22;3311;48.32423000;14.29074500;2023-04-03T09:06:15;12.30;48.80
6556;DHT22;3311;48.32423000;14.29074500;2023-04-03T09:08:49;12.60;49.70
6556;DHT22;3311;48.32423000;14.29074500;2023-04-03T09:11:23;12.70;49.20
6556;DHT22;3311;48.32423000;14.29074500;2023-04-03T09:13:57;12.80;48.80
6556;DHT22;3311;48.32423000;14.29074500;2023-04-03T09:16:35;12.60;48.50
6556;DHT22;3311;48.32423000;14.29074500;2023-04-03T09:19:11;12.50;48.50
6556;DHT22;3311;48.32423000;14.29074500;2023-04-03T09:21:42;12.80;49.60
6556;DHT22;3311;48.32423000;14.29074500;2023-04-03T09:24:11;12.60;48.50
6556;DHT22;3311;48.32423000;14.29074500;2023-04-03T09:26:42;12.60;48.70
6556;DHT22;3311;48.32423000;14.29074500;2023-04-03T09:29:16;12.70;50.00
6556;DHT22;3311;48.32423000;14.29074500;2023-04-03T09:31:45;12.80;50.00
6556;DHT22;3311;48.32423000;14.29074500;2023-04-03T09:34:20;12.80;48.10
6556;DHT22;3311;48.32423000;14.29074500;2023-04-03T09:36:50;12.80;48.20
6556;DHT22;3311;48.32423000;14.29074500;2023-04-03T09:39:19;12.90;49.10
6556;DHT22;3311;48.32423000;14.29074500;2023-04-03T09:42:03;13.00;47.80
6556;DHT22;3311;48.32423000;14.29074500;2023-04-03T09:44:33;13.00;47.80
6556;DHT22;3311;48.32423000;14.29074500;2023-04-03T09:47:21;12.90;47.50
6556;DHT22;3311;48.32423000;14.29074500;2023-04-03T09:49:50;13.00;47.40
6556;DHT22;3311;48.32423000;14.29074500;2023-04-03T09:52:24;13.00;47.60
6556;DHT22;3311;48.32423000;14.29074500;2023-04-03T09:54:52;13.20;47.30
6556;DHT22;3311;48.32423000;14.29074500;2023-04-03T09:57:19;13.20;47.40
6556;DHT22;3311;48.32423000;14.29074500;2023-04-03T09:59:57;13.20;46.10
6556;DHT22;3311;48.32423000;14.29074500;2023-04-03T10:02:37;13.20;47.00
6556;DHT22;3311;48.32423000;14.29074500;2023-04-03T10:05:28;13.40;47.00
6556;DHT22;3311;48.32423000;14.29074500;2023-04-03T10:08:22;13.50;46.80
6556;DHT22;3311;48.32423000;14.29074500;2023-04-03T10:11:07;13.60;46.50
6556;DHT22;3311;48.32423000;14.29074500;2023-04-03T10:13:36;13.50;45.80
6556;DHT22;3311;48.32423000;14.29074500;2023-04-03T10:16:08;13.50;46.30
6556;DHT22;3311;48.32423000;14.29074500;2023-04-03T10:18:42;13.50;46.00
6556;DHT22;3311;48.32423000;14.29074500;2023-04-03T10:21:17;13.60;45.50
6556;DHT22;3311;48.32423000;14.29074500;2023-04-03T10:23:51;13.60;45.40
6556;DHT22;3311;48.32423000;14.29074500;2023-04-03T10:26:29;13.60;45.00
6556;DHT22;3311;48.32423000;14.29074500;2023-04-03T10:29:05;13.60;44.80
6556;DHT22;3311;48.32423000;14.29074500;2023-04-03T10:31:44;13.60;44.50
6556;DHT22;3311;48.32423000;14.29074500;2023-04-03T10:34:20;13.50;43.80
6556;DHT22;3311;48.32423000;14.29074500;2023-04-03T10:36:55;13.50;43.90
6556;DHT22;3311;48.32423000;14.29074500;2023-04-03T10:39:30;13.40;44.20
6556;DHT22;3311;48.32423000;14.29074500;2023-04-03T10:42:03;13.40;43.70
6556;DHT22;3311;48.32423000;14.29074500;2023-04-03T10:44:39;13.30;43.30
6556;DHT22;3311;48.32423000;14.29074500;2023-04-03T10:47:15;13.30;44.20
6556;DHT22;3311;48.32423000;14.29074500;2023-04-03T10:49:54;13.40;43.30
6556;DHT22;3311;48.32423000;14.29074500;2023-04-03T10:52:28;13.30;43.30
6556;DHT22;3311;48.32423000;14.29074500;2023-04-03T10:55:05;13.20;43.30
6556;DHT22;3311;48.32423000;14.29074500;2023-04-03T10:57:36;13.20;43.30
6556;DHT22;3311;48.32423000;14.29074500;2023-04-03T11:00:07;13.20;43.50
6556;DHT22;3311;48.32423000;14.29074500;2023-04-03T11:02:45;13.20;43.70
6556;DHT22;3311;48.32423000;14.29074500;2023-04-03T11:05:18;13.20;43.40
6556;DHT22;3311;48.32423000;14.29074500;2023-04-03T11:07:52;13.10;43.40
6556;DHT22;3311;48.32423000;14.29074500;2023-04-03T11:10:23;13.10;43.50
6556;DHT22;3311;48.32423000;14.29074500;2023-04-03T11:12:54;13.00;42.90
6556;DHT22;3311;48.32423000;14.29074500;2023-04-03T11:15:30;12.90;43.20
6556;DHT22;3311;48.32423000;14.29074500;2023-04-03T11:18:03;12.90;43.30
6556;DHT22;3311;48.32423000;14.29074500;2023-04-03T11:20:33;12.80;42.60
6556;DHT22;3311;48.32423000;14.29074500;2023-04-03T11:23:05;12.80;43.30
6556;DHT22;3311;48.32423000;14.29074500;2023-04-03T11:25:34;12.80;42.80
6556;DHT22;3311;48.32423000;14.29074500;2023-04-03T11:28:06;12.80;42.80
6556;DHT22;3311;48.32423000;14.29074500;2023-04-03T11:30:39;12.80;42.40
6556;DHT22;3311;48.32423000;14.29074500;2023-04-03T11:33:30;12.80;42.90
6556;DHT22;3311;48.32423000;14.29074500;2023-04-03T11:36:02;12.70;41.70
6556;DHT22;3311;48.32423000;14.29074500;2023-04-03T11:38:36;12.70;41.60
6556;DHT22;3311;48.32423000;14.29074500;2023-04-03T11:41:11;12.70;42.10
6556;DHT22;3311;48.32423000;14.29074500;2023-04-03T11:43:57;12.80;42.60
6556;DHT22;3311;48.32423000;14.29074500;2023-04-03T11:46:49;13.00;42.10
6556;DHT22;3311;48.32423000;14.29074500;2023-04-03T11:55:56;13.00;41.10
6556;DHT22;3311;48.32423000;14.29074500;2023-04-03T11:58:25;12.90;40.40
6556;DHT22;3311;48.32423000;14.29074500;2023-04-03T12:01:04;12.80;40.10
6556;DHT22;3311;48.32423000;14.29074500;2023-04-03T12:12:37;12.80;39.90
6556;DHT22;3311;48.32423000;14.29074500;2023-04-03T12:15:24;12.90;40.00
6556;DHT22;3311;48.32423000;14.29074500;2023-04-03T12:17:52;12.80;39.60
6556;DHT22;3311;48.32423000;14.29074500;2023-04-03T12:20:53;12.90;39.80
6556;DHT22;3311;48.32423000;14.29074500;2023-04-03T12:23:30;12.80;40.00
6556;DHT22;3311;48.32423000;14.29074500;2023-04-03T12:26:05;12.70;39.60
6556;DHT22;3311;48.32423000;14.29074500;2023-04-03T12:28:39;12.80;39.70
6556;DHT22;3311;48.32423000;14.29074500;2023-04-03T12:31:10;12.70;39.00
6556;DHT22;3311;48.32423000;14.29074500;2023-04-03T12:36:42;12.80;39.00
6556;DHT22;3311;48.32423000;14.29074500;2023-04-03T12:39:33;12.80;39.00
6556;DHT22;3311;48.32423000;14.29074500;2023-04-03T12:42:19;11.30;37.80
6556;DHT22;3311;48.32423000;14.29074500;2023-04-03T12:44:56;12.90;39.40
6556;DHT22;3311;48.32423000;14.29074500;2023-04-03T12:47:29;12.90;38.90
6556;DHT22;3311;48.32423000;14.29074500;2023-04-03T12:49:59;13.00;39.20
6556;DHT22;3311;48.32423000;14.29074500;2023-04-03T12:52:35;13.10;38.90
6556;DHT22;3311;48.32423000;14.29074500;2023-04-03T12:55:08;13.00;38.60
6556;DHT22;3311;48.32423000;14.29074500;2023-04-03T12:57:35;13.00;39.10
6556;DHT22;3311;48.32423000;14.29074500;2023-04-03T13:00:30;13.00;39.10
6556;DHT22;3311;48.32423000;14.29074500;2023-04-03T13:02:59;13.00;38.70
6556;DHT22;3311;48.32423000;14.29074500;2023-04-03T13:05:27;13.10;38.70
6556;DHT22;3311;48.32423000;14.29074500;2023-04-03T13:07:59;13.00;38.40
6556;DHT22;3311;48.32423000;14.29074500;2023-04-03T13:10:29;13.10;39.10
6556;DHT22;3311;48.32423000;14.29074500;2023-04-03T13:13:07;13.10;39.20
6556;DHT22;3311;48.32423000;14.29074500;2023-04-03T13:15:43;13.20;38.90
6556;DHT22;3311;48.32423000;14.29074500;2023-04-03T13:18:28;13.20;38.90
6556;DHT22;3311;48.32423000;14.29074500;2023-04-03T13:21:01;13.00;38.30
6556;DHT22;3311;48.32423000;14.29074500;2023-04-03T13:23:30;13.00;38.10
6556;DHT22;3311;48.32423000;14.29074500;2023-04-03T13:25:59;12.80;37.90
6556;DHT22;3311;48.32423000;14.29074500;2023-04-03T13:28:30;12.90;38.00
6556;DHT22;3311;48.32423000;14.29074500;2023-04-03T13:31:08;12.90;38.00
6556;DHT22;3311;48.32423000;14.29074500;2023-04-03T13:33:37;12.90;38.10
6556;DHT22;3311;48.32423000;14.29074500;2023-04-03T13:36:07;12.90;37.80
6556;DHT22;3311;48.32423000;14.29074500;2023-04-03T13:38:35;12.90;38.30
6556;DHT22;3311;48.32423000;14.29074500;2023-04-03T13:41:05;13.00;38.50
6556;DHT22;3311;48.32423000;14.29074500;2023-04-03T13:43:34;12.90;37.70
6556;DHT22;3311;48.32423000;14.29074500;2023-04-03T13:46:24;12.90;37.80
6556;DHT22;3311;48.32423000;14.29074500;2023-04-03T13:48:54;12.90;37.60
6556;DHT22;3311;48.32423000;14.29074500;2023-04-03T13:51:24;12.90;37.40
6556;DHT22;3311;48.32423000;14.29074500;2023-04-03T13:53:54;13.00;38.40
6556;DHT22;3311;48.32423000;14.29074500;2023-04-03T13:56:30;12.90;37.50
6556;DHT22;3311;48.32423000;14.29074500;2023-04-03T13:59:05;12.90;37.20
6556;DHT22;3311;48.32423000;14.29074500;2023-04-03T14:01:42;12.80;37.30
6556;DHT22;3311;48.32423000;14.29074500;2023-04-03T14:04:14;12.80;37.10
6556;DHT22;3311;48.32423000;14.29074500;2023-04-03T14:06:42;12.80;36.90
6556;DHT22;3311;48.32423000;14.29074500;2023-04-03T14:09:10;12.70;37.40
6556;DHT22;3311;48.32423000;14.29074500;2023-04-03T14:11:37;12.60;37.50
6556;DHT22;3311;48.32423000;14.29074500;2023-04-03T14:14:12;12.60;37.10